Beach Center, California
Current Conditions -  °F | °C
As of 4:58 PM on Monday 26 Jan 2015 (Local Time) from KSLI Reporting Station
Light Rain Light Rain  
Wind Chill: 59°   Ceiling: 8000
Heat Index: 59°   Visibility: 10mi
Dew Point: 54°   Wind: 7mph
Humidity: 84%   Direction: 30°NNE
Pressure: 30.05"   Gusts: NA
Location:  33.6784°N, 118.005°W
Report Text: KSLI 270058Z AUTO 03006KT 10SM -RA SCT060 OVC080 15/12 A3005 RMK AO2 SLP179 P0005 T01500123
Loading
Personal Weather Stations






























Interactive Weather Map New forecast layout! Learn more

10-Day Weather Forecast

Advertisements
Track Severe Weather on mobile